CheckWX is a tool to help pilots better visualize weather data.  It is not intended as a substitute for an official pre-flight weather briefing.

17:59:32 UTC

YWHA METAR
Whyalla Airport
Whyalla, Australia
Current

60 mins ago

YWHA 251700Z AUTO 27004KT 9999 // NCD 04/03 Q1027
Observed
Aug-25 @ 17:00 UTC
Wind
  • 270° at 4 KTS
Visibility
10,000+ meters
Flight Rules
VFR
Cloud Levels
  • Clear skies
Temperature
C / 39°F
Dewpoint
C / 37°F
Humidity
93%
Altimeter
30.32" Hg
Pressure
1026.92 hPa
Previous

2 hours ago

YWHA 251600Z AUTO 31004KT 9999 // NCD 05/03 Q1027
Observed
Aug-25 @ 16:00 UTC
Wind
  • 310° at 4 KTS
Visibility
10,000+ meters
Flight Rules
VFR
Cloud Levels
  • Clear skies
Temperature
C / 41°F
Dewpoint
C / 37°F
Humidity
87%
Altimeter
30.32" Hg
Pressure
1026.92 hPa
Previous

3 hours ago

YWHA 251500Z AUTO 13006KT 9999 // NCD 09/07 Q1027
Observed
Aug-25 @ 15:00 UTC
Wind
  • 130° at 6 KTS
Visibility
10,000+ meters
Flight Rules
VFR
Cloud Levels
  • Clear skies
Temperature
C / 48°F
Dewpoint
C / 45°F
Humidity
87%
Altimeter
30.32" Hg
Pressure
1026.92 hPa